createdAt,value
2023-05-04T00:00:29.257Z,99165.66
2023-05-04T00:02:55.663Z,99161.31
2023-05-04T00:05:21.883Z,99162.13
2023-05-04T00:07:47.980Z,99157.81
2023-05-04T00:10:14.078Z,99155.13
2023-05-04T00:12:40.203Z,99149.78
2023-05-04T00:15:06.300Z,99151.63
2023-05-04T00:17:32.417Z,99144.44
2023-05-04T00:19:58.607Z,99144.63
2023-05-04T00:22:24.700Z,99138.28
2023-05-04T00:24:50.799Z,99140.94
2023-05-04T00:27:16.925Z,99133.91
2023-05-04T00:29:43.029Z,99133.09
2023-05-04T00:32:09.137Z,99135.78
2023-05-04T00:34:35.237Z,99127.75
2023-05-04T00:37:01.366Z,99128.56
2023-05-04T00:39:27.470Z,99129.59
2023-05-04T00:41:53.589Z,99131.44
2023-05-04T00:44:19.684Z,99128.78
2023-05-04T00:46:45.832Z,99127.94
2023-05-04T00:49:11.989Z,99128.78
2023-05-04T00:51:38.088Z,99124.25
2023-05-04T00:54:04.272Z,99122.59
2023-05-04T00:56:30.524Z,99117.22
2023-05-04T00:58:56.630Z,99117.22
2023-05-04T01:01:22.756Z,99105.72
2023-05-04T01:03:48.964Z,99099.53
2023-05-04T01:06:15.091Z,99102.22
2023-05-04T01:08:41.188Z,99098.72
2023-05-04T01:11:07.971Z,99097.91
2023-05-04T01:13:34.073Z,99098.72
2023-05-04T01:16:00.180Z,99101.56
2023-05-04T01:18:26.296Z,99102.41
2023-05-04T01:20:52.389Z,99105.06
2023-05-04T01:23:18.501Z,99098.91
2023-05-04T01:25:44.623Z,99090.06
2023-05-04T01:28:10.712Z,99095.41
2023-05-04T01:30:36.850Z,99096.22
2023-05-04T01:33:03.043Z,99093.75
2023-05-04T01:35:29.223Z,99096.22
2023-05-04T01:37:55.326Z,99086.56
2023-05-04T01:40:21.428Z,99088.41
2023-05-04T01:42:47.513Z,99091.91
2023-05-04T01:45:13.613Z,99091.91
2023-05-04T01:47:39.772Z,99094.59
2023-05-04T01:50:06.225Z,99098.25
2023-05-04T01:52:32.494Z,99092.91
2023-05-04T01:54:58.621Z,99095.59
2023-05-04T01:57:24.712Z,99092.09
2023-05-04T01:59:50.812Z,99078.72
2023-05-04T02:02:16.938Z,99081.38
2023-05-04T02:04:43.033Z,99080.56
2023-05-04T02:07:09.117Z,99084.06
2023-05-04T02:09:35.258Z,99087.78
2023-05-04T02:12:01.368Z,99085.09
2023-05-04T02:14:27.467Z,99086.91
2023-05-04T02:16:53.643Z,99096.63
2023-05-04T02:19:19.744Z,99082.59
2023-05-04T02:21:45.839Z,99084.25
2023-05-04T02:24:11.950Z,99089.59
2023-05-04T02:26:38.052Z,99082.59
2023-05-04T02:29:04.146Z,99083.41
2023-05-04T02:31:30.280Z,99082.59
2023-05-04T02:33:56.392Z,99075.63
2023-05-04T02:36:22.497Z,99070.25
2023-05-04T02:38:48.595Z,99066.75
2023-05-04T02:41:14.677Z,99065.09
2023-05-04T02:43:40.780Z,99058.72
2023-05-04T02:46:06.925Z,99063.25
2023-05-04T02:48:33.085Z,99066.75
2023-05-04T02:50:59.188Z,99072.09
2023-05-04T02:53:25.302Z,99074.75
2023-05-04T02:55:51.404Z,99072.94
2023-05-04T02:58:17.517Z,99067.78
2023-05-04T03:00:43.683Z,99074.97
2023-05-04T03:03:09.796Z,99074.97
2023-05-04T03:05:35.900Z,99075.78
2023-05-04T03:08:02.014Z,99073.13
2023-05-04T03:10:28.109Z,99072.28
2023-05-04T03:12:54.310Z,99070.63
2023-05-04T03:15:20.781Z,99064.44
2023-05-04T03:17:46.961Z,99065.28
2023-05-04T03:20:13.093Z,99055.44
2023-05-04T03:22:39.205Z,99067.13
2023-05-04T03:25:05.323Z,99059.09
2023-05-04T03:27:31.418Z,99059.28
2023-05-04T03:29:57.533Z,99060.97
2023-05-04T03:32:23.610Z,99060.97
2023-05-04T03:34:49.704Z,99055.78
2023-05-04T03:37:15.813Z,99053.13
2023-05-04T03:39:41.895Z,99060.13
2023-05-04T03:42:07.988Z,99051.25
2023-05-04T03:44:34.108Z,99045.09
2023-05-04T03:47:00.227Z,99042.63
2023-05-04T03:49:26.318Z,99053.94
2023-05-04T03:51:52.418Z,99052.28
2023-05-04T03:54:18.572Z,99049.63
2023-05-04T03:56:44.662Z,99048.81
2023-05-04T03:59:10.769Z,99040.97
2023-05-04T04:01:36.867Z,99036.44
2023-05-04T04:04:03.048Z,99027.59
2023-05-04T04:06:29.383Z,99032.94
2023-05-04T04:08:55.483Z,99032.94
2023-05-04T04:11:21.587Z,99035.63
2023-05-04T04:13:47.695Z,99034.97
2023-05-04T04:16:13.837Z,99036.66
2023-05-04T04:18:39.982Z,99036.66
2023-05-04T04:21:06.535Z,99038.50
2023-05-04T04:23:32.668Z,99037.66
2023-05-04T04:25:58.771Z,99036.00
2023-05-04T04:28:24.888Z,99040.31
2023-05-04T04:30:50.979Z,99035.81
2023-05-04T04:33:17.112Z,99034.97
2023-05-04T04:35:43.236Z,99034.16
2023-05-04T04:38:09.335Z,99032.28
2023-05-04T04:40:35.423Z,99032.28
2023-05-04T04:43:01.538Z,99034.31
2023-05-04T04:45:27.666Z,99036.00
2023-05-04T04:47:53.821Z,99044.03
2023-05-04T04:50:20.024Z,99042.16
2023-05-04T04:52:46.134Z,99048.34
2023-05-04T04:55:12.244Z,99055.53
2023-05-04T04:57:38.345Z,99046.69
2023-05-04T05:00:04.755Z,99055.72
2023-05-04T05:02:31.096Z,99052.03
2023-05-04T05:04:57.231Z,99047.69
2023-05-04T05:07:23.392Z,99047.69
2023-05-04T05:09:49.483Z,99046.06
2023-05-04T05:12:15.603Z,99049.56
2023-05-04T05:14:41.684Z,99054.72
2023-05-04T05:17:07.857Z,99041.53
2023-05-04T05:19:33.983Z,99038.84
2023-05-04T05:22:00.090Z,99036.19
2023-05-04T05:24:26.264Z,99031.88
2023-05-04T05:26:52.498Z,99027.34
2023-05-04T05:29:18.622Z,99022.00
2023-05-04T05:31:44.722Z,99024.66
2023-05-04T05:34:10.821Z,99029.19
2023-05-04T05:36:36.940Z,99028.38
2023-05-04T05:39:03.028Z,99038.84
2023-05-04T05:41:29.184Z,99048.72
2023-05-04T05:43:55.331Z,99039.06
2023-05-04T05:46:21.445Z,99045.22
2023-05-04T05:48:47.600Z,99050.59
2023-05-04T05:51:13.715Z,99041.75
2023-05-04T05:53:39.812Z,99039.06
2023-05-04T05:56:06.482Z,99043.56
2023-05-04T05:58:32.587Z,99040.72
2023-05-04T06:00:58.715Z,99053.25
2023-05-04T06:03:25.012Z,99040.88
2023-05-04T06:05:51.254Z,99039.06
2023-05-04T06:08:17.347Z,99038.22
2023-05-04T06:10:43.453Z,99039.06
2023-05-04T06:13:09.621Z,99030.19
2023-05-04T06:15:35.803Z,99032.03
2023-05-04T06:18:02.015Z,99021.34
2023-05-04T06:20:28.207Z,99016.81
2023-05-04T06:22:54.310Z,99012.34
2023-05-04T06:25:20.917Z,99015.00
2023-05-04T06:27:47.008Z,99017.69
2023-05-04T06:30:13.120Z,99011.47
2023-05-04T06:32:39.303Z,99018.50
2023-05-04T06:35:05.461Z,99011.31
2023-05-04T06:37:31.554Z,99017.69
2023-05-04T06:39:57.712Z,99019.31
2023-05-04T06:42:23.808Z,99011.47
2023-05-04T06:44:49.908Z,99004.31
2023-05-04T06:47:16.011Z,99001.63
2023-05-04T06:49:42.119Z,98996.28
2023-05-04T06:52:08.214Z,99005.13
2023-05-04T06:54:34.338Z,99002.47
2023-05-04T06:57:00.433Z,98996.28
2023-05-04T06:59:26.524Z,99003.47
2023-05-04T07:01:52.634Z,99005.97
2023-05-04T07:04:18.745Z,99005.13
2023-05-04T07:06:44.859Z,99009.66
2023-05-04T07:09:11.002Z,98999.78
2023-05-04T07:11:37.090Z,99000.59
2023-05-04T07:14:03.183Z,99005.13
2023-05-04T07:16:29.332Z,99005.13
2023-05-04T07:18:55.436Z,98997.94
2023-05-04T07:21:28.358Z,98994.44
2023-05-04T07:23:55.445Z,98992.59
2023-05-04T07:26:21.558Z,98992.59
2023-05-04T07:28:47.666Z,98992.59
2023-05-04T07:31:14.058Z,98990.75
2023-05-04T07:33:40.246Z,98992.59
2023-05-04T07:36:06.348Z,98990.75
2023-05-04T07:38:32.454Z,98985.38
2023-05-04T07:40:58.570Z,98984.56
2023-05-04T07:43:24.659Z,98986.22
2023-05-04T07:45:50.849Z,98981.72
2023-05-04T07:48:18.091Z,98989.75
2023-05-04T07:50:44.454Z,98975.50
2023-05-04T07:53:10.602Z,98988.88
2023-05-04T07:55:36.781Z,98981.72
2023-05-04T07:58:02.875Z,98986.03
2023-05-04T08:00:28.989Z,98987.88
2023-05-04T08:02:55.142Z,98988.69
2023-05-04T08:05:21.312Z,98982.53
2023-05-04T08:07:47.453Z,98980.69
2023-05-04T08:10:13.566Z,98977.00
2023-05-04T08:12:39.688Z,98975.16
2023-05-04T08:15:06.454Z,98977.84
2023-05-04T08:17:32.708Z,98978.84
2023-05-04T08:19:58.834Z,98970.63
2023-05-04T08:22:24.958Z,98974.34
2023-05-04T08:24:51.074Z,98977.84
2023-05-04T08:27:17.203Z,98978.66
2023-05-04T08:29:43.334Z,98984.00
2023-05-04T08:32:09.477Z,98976.78
2023-05-04T08:34:35.628Z,98974.94
2023-05-04T08:37:02.261Z,98975.97
2023-05-04T08:39:28.392Z,98972.28
2023-05-04T08:41:54.515Z,98977.44
2023-05-04T08:44:20.626Z,98973.13
2023-05-04T08:46:46.745Z,98970.44
2023-05-04T08:49:12.908Z,98962.44
2023-05-04T08:51:39.037Z,98972.09
2023-05-04T08:54:05.139Z,98970.22
2023-05-04T08:56:31.268Z,98964.88
2023-05-04T08:58:57.390Z,98962.22
2023-05-04T09:01:23.581Z,98954.19
2023-05-04T09:03:49.980Z,98956.69
2023-05-04T09:06:16.291Z,98953.19
2023-05-04T09:08:42.410Z,98955.88
2023-05-04T09:11:08.525Z,98959.19
2023-05-04T09:13:34.654Z,98943.13
2023-05-04T09:16:00.774Z,98952.97
2023-05-04T09:18:26.904Z,98947.63
2023-05-04T09:20:53.056Z,98941.28
2023-05-04T09:23:19.174Z,98950.13
2023-05-04T09:25:45.298Z,98936.75
2023-05-04T09:28:11.422Z,98947.28
2023-05-04T09:30:37.523Z,98946.41
2023-05-04T09:33:03.847Z,98943.75
2023-05-04T09:35:33.714Z,98941.91
2023-05-04T09:38:00.534Z,98933.91
2023-05-04T09:40:26.651Z,98940.88
2023-05-04T09:42:52.774Z,98943.56
2023-05-04T09:45:18.864Z,98941.72
2023-05-04T09:47:45.011Z,98940.69
2023-05-04T09:50:11.131Z,98926.47
2023-05-04T09:52:37.236Z,98935.34
2023-05-04T09:55:03.526Z,98923.81
2023-05-04T09:57:29.772Z,98924.66
2023-05-04T09:59:55.856Z,98920.94
2023-05-04T10:02:23.406Z,98917.47
2023-05-04T10:04:49.739Z,98910.06
2023-05-04T10:07:15.837Z,98905.72
2023-05-04T10:09:42.024Z,98898.56
2023-05-04T10:12:08.149Z,98896.69
2023-05-04T10:14:34.257Z,98888.69
2023-05-04T10:17:00.368Z,98883.13
2023-05-04T10:19:26.476Z,98887.66
2023-05-04T10:21:52.569Z,98880.44
2023-05-04T10:24:18.678Z,98881.28
2023-05-04T10:26:44.797Z,98876.75
2023-05-04T10:29:10.950Z,98873.88
2023-05-04T10:31:37.097Z,98866.88
2023-05-04T10:34:03.239Z,98872.06
2023-05-04T10:36:29.386Z,98867.53
2023-05-04T10:38:55.487Z,98865.66
2023-05-04T10:41:22.098Z,98863.81
2023-05-04T10:43:48.199Z,98859.28
2023-05-04T10:46:14.386Z,98852.31
2023-05-04T10:48:40.581Z,98855.59
2023-05-04T10:51:06.696Z,98842.25
2023-05-04T10:53:32.806Z,98841.19
2023-05-04T10:55:58.930Z,98820.66
2023-05-04T10:58:25.017Z,98838.34
2023-05-04T11:00:51.137Z,98831.13
2023-05-04T11:03:17.426Z,98818.59
2023-05-04T11:05:43.615Z,98813.22
2023-05-04T11:08:09.706Z,98809.56
2023-05-04T11:10:35.803Z,98804.22
2023-05-04T11:13:04.085Z,98805.84
2023-05-04T11:15:31.609Z,98803.16
2023-05-04T11:17:57.768Z,98805.66
2023-05-04T11:20:23.940Z,98804.63
2023-05-04T11:22:50.046Z,98791.25
2023-05-04T11:25:16.678Z,98790.44
2023-05-04T11:27:42.831Z,98789.41
2023-05-04T11:30:08.959Z,98783.84
2023-05-04T11:32:35.138Z,98777.69
2023-05-04T11:35:01.294Z,98782.84
2023-05-04T11:37:27.660Z,98782.84
2023-05-04T11:39:53.783Z,98781.00
2023-05-04T11:42:19.876Z,98779.94
2023-05-04T11:44:45.980Z,98770.91
2023-05-04T11:47:12.255Z,98767.22
2023-05-04T11:49:38.372Z,98769.88
2023-05-04T11:52:04.490Z,98758.19
2023-05-04T11:54:30.638Z,98763.53
2023-05-04T11:56:56.733Z,98740.28
2023-05-04T11:59:22.837Z,98752.59
2023-05-04T12:01:48.958Z,98752.41
2023-05-04T12:04:15.175Z,98747.06
2023-05-04T12:06:41.336Z,98743.34
2023-05-04T12:09:07.493Z,98743.34
2023-05-04T12:11:33.628Z,98743.97
2023-05-04T12:13:59.739Z,98731.44
2023-05-04T12:16:25.911Z,98721.53
2023-05-04T12:18:52.019Z,98716.19
2023-05-04T12:21:18.111Z,98731.06
2023-05-04T12:23:44.251Z,98722.16
2023-05-04T12:26:10.368Z,98712.31
2023-05-04T12:28:36.534Z,98719.31
2023-05-04T12:31:02.663Z,98712.09
2023-05-04T12:33:28.760Z,98720.75
2023-05-04T12:35:54.854Z,98715.41
2023-05-04T12:38:20.974Z,98710.88
2023-05-04T12:40:47.074Z,98709.00
2023-05-04T12:43:13.165Z,98708.81
2023-05-04T12:45:39.300Z,98697.94
2023-05-04T12:48:05.517Z,98695.25
2023-05-04T12:50:31.660Z,98691.53
2023-05-04T12:52:57.798Z,98692.34
2023-05-04T12:55:25.444Z,98693.19
2023-05-04T12:57:51.787Z,98685.78
2023-05-04T13:00:17.891Z,98678.78
2023-05-04T13:02:44.055Z,98681.28
2023-05-04T13:05:10.196Z,98676.72
2023-05-04T13:07:36.328Z,98680.03
2023-05-04T13:10:02.434Z,98673.88
2023-05-04T13:12:28.577Z,98667.47
2023-05-04T13:14:54.742Z,98658.41
2023-05-04T13:17:20.847Z,98658.22
2023-05-04T13:19:46.935Z,98645.88
2023-05-04T13:22:13.047Z,98632.06
2023-05-04T13:24:39.147Z,98642.78
2023-05-04T13:27:05.245Z,98645.25
2023-05-04T13:29:31.350Z,98634.34
2023-05-04T13:31:57.481Z,98634.34
2023-05-04T13:34:23.615Z,98635.81
2023-05-04T13:36:49.732Z,98627.78
2023-05-04T13:39:15.850Z,98623.25
2023-05-04T13:41:41.974Z,98628.41
2023-05-04T13:44:08.093Z,98619.31
2023-05-04T13:46:34.246Z,98618.50
2023-05-04T13:49:00.378Z,98616.47
2023-05-04T13:51:26.627Z,98602.06
2023-05-04T13:53:52.718Z,98603.69
2023-05-04T13:56:18.823Z,98601.84
2023-05-04T13:58:44.941Z,98598.16
2023-05-04T14:01:11.050Z,98597.09
2023-05-04T14:03:37.164Z,98594.22
2023-05-04T14:06:03.274Z,98587.00
2023-05-04T14:08:29.361Z,98581.47
2023-05-04T14:10:55.465Z,98576.13
2023-05-04T14:13:21.597Z,98571.34
2023-05-04T14:15:47.691Z,98562.31
2023-05-04T14:18:13.808Z,98566.63
2023-05-04T14:20:39.955Z,98557.78
2023-05-04T14:23:06.116Z,98557.78
2023-05-04T14:25:32.214Z,98550.34
2023-05-04T14:27:58.355Z,98552.00
2023-05-04T14:30:24.450Z,98545.63
2023-05-04T14:32:50.598Z,98545.41
2023-05-04T14:35:16.802Z,98541.91
2023-05-04T14:37:42.912Z,98547.06
2023-05-04T14:40:09.390Z,98544.16
2023-05-04T14:42:35.981Z,98546.81
2023-05-04T14:45:02.369Z,98545.81
2023-05-04T14:47:28.660Z,98544.56
2023-05-04T14:49:54.986Z,98543.75
2023-05-04T14:52:21.423Z,98547.88
2023-05-04T14:54:47.534Z,98544.97
2023-05-04T14:57:13.787Z,98540.66
2023-05-04T14:59:39.890Z,98540.44
2023-05-04T15:02:05.978Z,98529.75
2023-05-04T15:04:32.129Z,98534.06
2023-05-04T15:06:58.253Z,98527.66
2023-05-04T15:09:24.365Z,98537.34
2023-05-04T15:11:50.477Z,98527.25
2023-05-04T15:14:16.603Z,98533.44
2023-05-04T15:16:42.711Z,98525.19
2023-05-04T15:19:08.834Z,98529.50
2023-05-04T15:21:34.933Z,98525.56
2023-05-04T15:24:01.065Z,98513.22
2023-05-04T15:26:27.198Z,98511.38
2023-05-04T15:28:54.213Z,98506.00
2023-05-04T15:31:20.493Z,98507.44
2023-05-04T15:33:46.619Z,98509.31
2023-05-04T15:36:12.707Z,98508.25
2023-05-04T15:38:38.808Z,98501.88
2023-05-04T15:41:04.921Z,98505.38
2023-05-04T15:43:31.015Z,98501.66
2023-05-04T15:45:57.107Z,98503.31
2023-05-04T15:48:23.221Z,98498.78
2023-05-04T15:50:49.313Z,98500.41
2023-05-04T15:53:15.427Z,98494.84
2023-05-04T15:55:41.576Z,98493.00
2023-05-04T15:58:07.686Z,98493.00
2023-05-04T16:00:33.797Z,98484.75
2023-05-04T16:02:59.980Z,98493.59
2023-05-04T16:05:26.178Z,98491.75
2023-05-04T16:07:52.303Z,98491.53
2023-05-04T16:10:18.433Z,98487.81
2023-05-04T16:12:44.560Z,98485.13
2023-05-04T16:15:10.672Z,98490.28
2023-05-04T16:17:36.804Z,98488.44
2023-05-04T16:20:02.946Z,98483.69
2023-05-04T16:22:29.055Z,98479.38
2023-05-04T16:24:55.175Z,98475.66
2023-05-04T16:27:21.304Z,98479.97
2023-05-04T16:29:47.413Z,98481.63
2023-05-04T16:32:13.541Z,98469.84
2023-05-04T16:34:39.632Z,98478.72
2023-05-04T16:37:05.731Z,98478.72
2023-05-04T16:39:31.896Z,98477.69
2023-05-04T16:41:58.043Z,98469.66
2023-05-04T16:44:24.131Z,98469.44
2023-05-04T16:46:50.240Z,98469.44
2023-05-04T16:49:16.351Z,98480.97
2023-05-04T16:51:42.451Z,98471.91
2023-05-04T16:54:08.576Z,98478.06
2023-05-04T16:56:34.667Z,98469.00
2023-05-04T16:59:01.233Z,98472.50
2023-05-04T17:01:27.461Z,98476.81
2023-05-04T17:03:53.669Z,98465.28
2023-05-04T17:06:21.697Z,98462.41
2023-05-04T17:08:47.802Z,98463.22
2023-05-04T17:11:13.900Z,98460.53
2023-05-04T17:13:40.071Z,98464.03
2023-05-04T17:16:06.297Z,98463.00
2023-05-04T17:18:32.434Z,98466.50
2023-05-04T17:20:58.535Z,98461.16
2023-05-04T17:23:24.660Z,98459.53
2023-05-04T17:25:50.767Z,98463.63
2023-05-04T17:28:16.865Z,98455.59
2023-05-04T17:30:42.979Z,98454.75
2023-05-04T17:33:09.213Z,98455.34
2023-05-04T17:35:35.350Z,98466.88
2023-05-04T17:38:01.478Z,98462.38
2023-05-04T17:40:28.114Z,98453.28
2023-05-04T17:42:54.578Z,98460.28
2023-05-04T17:45:20.689Z,98456.56
2023-05-04T17:47:46.846Z,98445.03
2023-05-04T17:50:12.982Z,98455.97
2023-05-04T17:52:39.094Z,98469.16
2023-05-04T17:55:05.184Z,98480.50
2023-05-04T17:57:31.280Z,98484.00
2023-05-04T17:59:57.402Z,98490.38
2023-05-04T18:02:23.565Z,98491.22
2023-05-04T18:04:49.759Z,98486.66
2023-05-04T18:07:16.344Z,98486.66
2023-05-04T18:09:42.447Z,98482.94
2023-05-04T18:12:08.551Z,98489.97
2023-05-04T18:14:34.678Z,98487.47
2023-05-04T18:17:00.886Z,98494.72
2023-05-04T18:19:27.000Z,98504.19
2023-05-04T18:21:53.117Z,98492.63
2023-05-04T18:24:19.201Z,98497.75
2023-05-04T18:26:45.288Z,98497.75
2023-05-04T18:29:18.968Z,98494.28
2023-05-04T18:31:45.863Z,98497.75
2023-05-04T18:34:12.029Z,98499.63
2023-05-04T18:36:38.177Z,98501.25
2023-05-04T18:39:04.268Z,98503.13
2023-05-04T18:41:30.372Z,98510.97
2023-05-04T18:43:56.656Z,98506.63
2023-05-04T18:46:22.851Z,98505.59
2023-05-04T18:48:49.041Z,98519.00
2023-05-04T18:51:15.144Z,98528.91
2023-05-04T18:53:41.268Z,98526.00
2023-05-04T18:56:07.390Z,98527.84
2023-05-04T18:58:33.504Z,98527.03
2023-05-04T19:00:59.633Z,98530.53
2023-05-04T19:03:25.902Z,98526.00
2023-05-04T19:05:52.067Z,98529.53
2023-05-04T19:08:18.165Z,98535.91
2023-05-04T19:10:44.256Z,98541.06
2023-05-04T19:13:10.452Z,98536.50
2023-05-04T19:15:36.713Z,98533.03
2023-05-04T19:18:02.863Z,98528.47
2023-05-04T19:20:28.991Z,98527.66
2023-05-04T19:22:55.083Z,98534.88
2023-05-04T19:25:33.610Z,98531.16
2023-05-04T19:28:00.852Z,98530.34
2023-05-04T19:30:26.956Z,98530.34
2023-05-04T19:32:53.066Z,98526.59
2023-05-04T19:35:19.228Z,98525.78
2023-05-04T19:37:45.337Z,98529.28
2023-05-04T19:40:11.426Z,98524.75
2023-05-04T19:42:37.531Z,98526.59
2023-05-04T19:45:03.633Z,98531.75
2023-05-04T19:47:29.750Z,98528.28
2023-05-04T19:49:55.899Z,98526.59
2023-05-04T19:52:21.996Z,98518.56
2023-05-04T19:54:48.111Z,98518.56
2023-05-04T19:57:14.232Z,98521.25
2023-05-04T19:59:40.327Z,98512.38
2023-05-04T20:02:06.703Z,98511.56
2023-05-04T20:04:32.898Z,98519.19
2023-05-04T20:06:59.009Z,98513.22
2023-05-04T20:09:25.111Z,98515.88
2023-05-04T20:11:51.716Z,98509.50
2023-05-04T20:14:17.812Z,98507.03
2023-05-04T20:16:43.936Z,98508.91
2023-05-04T20:19:10.095Z,98499.81
2023-05-04T20:21:36.246Z,98501.47
2023-05-04T20:24:02.447Z,98499.59
2023-05-04T20:26:28.553Z,98499.00
2023-05-04T20:28:54.642Z,98494.44
2023-05-04T20:31:20.742Z,98493.63
2023-05-04T20:33:46.964Z,98494.44
2023-05-04T20:36:13.075Z,98485.38
2023-05-04T20:38:39.188Z,98480.22
2023-05-04T20:41:05.661Z,98474.88
2023-05-04T20:43:32.724Z,98475.69
2023-05-04T20:45:58.905Z,98469.50
2023-05-04T20:48:25.163Z,98468.69
2023-05-04T20:50:57.097Z,98466.81
2023-05-04T20:53:29.162Z,98471.38
2023-05-04T20:55:55.242Z,98470.31
2023-05-04T20:58:21.329Z,98464.97
2023-05-04T21:00:47.449Z,98465.19
2023-05-04T21:03:13.660Z,98460.66
2023-05-04T21:05:39.847Z,98450.75
2023-05-04T21:08:05.960Z,98461.47
2023-05-04T21:10:32.071Z,98451.78
2023-05-04T21:12:58.184Z,98448.28
2023-05-04T21:15:24.382Z,98449.94
2023-05-04T21:17:50.502Z,98441.91
2023-05-04T21:20:16.614Z,98443.97
2023-05-04T21:22:42.735Z,98451.78
2023-05-04T21:25:08.823Z,98442.91
2023-05-04T21:27:34.924Z,98441.28
2023-05-04T21:30:01.037Z,98439.41
2023-05-04T21:32:27.155Z,98441.28
2023-05-04T21:34:53.260Z,98441.28
2023-05-04T21:37:19.373Z,98437.56
2023-05-04T21:39:45.470Z,98441.28
2023-05-04T21:42:11.568Z,98435.94
2023-05-04T21:44:37.694Z,98437.78
2023-05-04T21:47:03.953Z,98432.63
2023-05-04T21:49:30.118Z,98436.94
2023-05-04T21:51:56.308Z,98435.94
2023-05-04T21:54:22.412Z,98432.63
2023-05-04T21:56:48.502Z,98426.22
2023-05-04T21:59:14.608Z,98419.03
2023-05-04T22:01:40.722Z,98422.72
2023-05-04T22:04:06.861Z,98428.91
2023-05-04T22:06:33.016Z,98424.59
2023-05-04T22:08:59.108Z,98428.91
2023-05-04T22:11:25.207Z,98418.41
2023-05-04T22:13:51.310Z,98416.56
2023-05-04T22:16:17.438Z,98427.28
2023-05-04T22:18:43.538Z,98421.91
2023-05-04T22:21:09.633Z,98428.31
2023-05-04T22:23:35.756Z,98431.00
2023-05-04T22:26:01.858Z,98427.47
2023-05-04T22:28:27.969Z,98428.09
2023-05-04T22:30:54.139Z,98423.78
2023-05-04T22:33:20.241Z,98428.31
2023-05-04T22:35:46.363Z,98433.69
2023-05-04T22:38:12.463Z,98432.63
2023-05-04T22:40:40.130Z,98429.34
2023-05-04T22:43:06.673Z,98433.69
2023-05-04T22:45:32.771Z,98428.31
2023-05-04T22:47:58.934Z,98432.84
2023-05-04T22:50:25.113Z,98435.50
2023-05-04T22:52:51.237Z,98425.84
2023-05-04T22:55:17.440Z,98421.31
2023-05-04T22:57:43.632Z,98428.53
2023-05-04T23:00:10.185Z,98427.72
2023-05-04T23:02:36.809Z,98430.41
2023-05-04T23:05:03.014Z,98425.03
2023-05-04T23:07:29.135Z,98423.38
2023-05-04T23:09:55.227Z,98427.72
2023-05-04T23:12:21.339Z,98433.88
2023-05-04T23:14:47.448Z,98426.91
2023-05-04T23:17:13.892Z,98418.00
2023-05-04T23:19:40.137Z,98422.34
2023-05-04T23:22:06.274Z,98430.41
2023-05-04T23:24:32.380Z,98421.53
2023-05-04T23:26:58.530Z,98418.00
2023-05-04T23:29:24.626Z,98421.53
2023-05-04T23:31:50.824Z,98413.72
2023-05-04T23:34:16.985Z,98413.72
2023-05-04T23:36:43.097Z,98414.53
2023-05-04T23:39:09.225Z,98419.88
2023-05-04T23:41:35.345Z,98414.53
2023-05-04T23:44:01.424Z,98413.72
2023-05-04T23:46:27.536Z,98408.34
2023-05-04T23:48:53.652Z,98409.16
2023-05-04T23:51:19.764Z,98402.16
2023-05-04T23:53:45.872Z,98403.00
2023-05-04T23:56:12.385Z,98408.34
2023-05-04T23:58:38.490Z,98402.16
